Time;durP1;ratioP1;P1;durP2;ratioP2;P2;SDS_P1;SDS_P2;PMS_P1;PMS_P2;Temp;Humidity;BMP_temperature;BMP_pressure;BME280_temperature;BME280_humidity;BME280_pressure;Samples;Min_cycle;Max_cycle;Signal;HPM_P1;HPM_P2
2022/09/06 00:00:51;;;;;;;6.63;3.33;;;19.90;99.90;;;19.24;84.27;97448.25;4954320;29;20911;-71
2022/09/06 00:03:17;;;;;;;7.15;3.88;;;20.00;99.90;;;19.22;83.05;97444.28;4953266;28;20436;-71
2022/09/06 00:05:43;;;;;;;9.60;4.57;;;19.90;99.90;;;19.18;84.60;97435.25;4954001;28;20449;-71
2022/09/06 00:08:09;;;;;;;10.20;4.28;;;19.90;99.90;;;19.16;84.36;97440.16;4954285;29;20506;-71
2022/09/06 00:10:36;;;;;;;9.00;3.57;;;19.90;99.90;;;19.11;85.77;97438.34;4953578;28;20783;-71
2022/09/06 00:13:05;;;;;;;4.20;3.42;;;19.80;99.90;;;19.07;85.94;97440.06;4953891;28;20579;-71
2022/09/06 00:15:31;;;;;;;7.75;3.90;;;19.80;99.90;;;19.05;85.45;97436.91;4954024;28;20489;-71
2022/09/06 00:17:59;;;;;;;6.75;3.65;;;19.80;99.90;;;19.03;85.05;97438.28;4954286;28;20489;-71
2022/09/06 00:20:26;;;;;;;9.98;3.72;;;19.70;99.90;;;19.04;84.35;97435.31;4953690;28;20417;-71
2022/09/06 00:22:55;;;;;;;5.88;3.72;;;19.70;99.90;;;19.03;82.69;97436.41;4953474;29;20453;-71
2022/09/06 00:25:21;;;;;;;5.50;3.80;;;19.70;99.90;;;19.06;82.79;97430.44;4953976;29;20787;-71
2022/09/06 00:27:54;;;;;;;6.43;3.60;;;19.70;99.90;;;19.09;82.81;97426.38;4953861;28;20429;-71
2022/09/06 00:30:20;;;;;;;6.77;3.90;;;19.70;99.90;;;19.09;81.32;97435.22;4953756;28;20502;-70
2022/09/06 00:32:46;;;;;;;7.32;3.72;;;19.80;99.90;;;19.12;82.92;97433.78;4953383;28;20930;-70
2022/09/06 00:35:12;;;;;;;6.00;3.78;;;19.80;99.90;;;19.12;79.32;97429.22;4954033;29;20414;-71
2022/09/06 00:37:37;;;;;;;9.57;3.80;;;19.80;99.90;;;19.13;77.95;97422.75;4953653;28;20421;-71
2022/09/06 00:40:05;;;;;;;6.00;3.92;;;19.80;99.90;;;19.15;80.32;97427.81;4953420;28;20429;-71
2022/09/06 00:42:31;;;;;;;7.63;3.78;;;19.80;99.90;;;19.17;79.03;97433.69;4953486;28;20432;-71
2022/09/06 00:44:58;;;;;;;7.77;3.27;;;19.80;99.90;;;19.18;80.94;97440.63;4953043;28;20430;-71
2022/09/06 00:47:26;;;;;;;6.38;3.50;;;19.80;99.90;;;19.16;75.57;97437.47;4953977;28;20832;-70
2022/09/06 00:49:55;;;;;;;5.80;3.90;;;19.80;99.90;;;19.13;75.17;97436.16;4953527;28;20418;-71
2022/09/06 00:52:23;;;;;;;6.93;3.73;;;19.80;99.90;;;19.15;79.35;97435.88;4953290;28;20505;-71
2022/09/06 00:54:50;;;;;;;5.13;3.60;;;19.80;99.90;;;19.16;80.36;97434.78;4952846;28;20565;-70
2022/09/06 00:57:17;;;;;;;9.35;3.90;;;19.80;99.90;;;19.12;76.19;97428.41;4942271;29;20772;-70
2022/09/06 00:59:45;;;;;;;4.47;3.88;;;19.70;99.90;;;19.14;79.09;97434.28;4953011;28;20461;-71
2022/09/06 01:02:13;;;;;;;7.95;3.80;;;19.80;99.90;;;19.14;79.14;97437.75;4952349;28;20425;-70
2022/09/06 01:04:42;;;;;;;10.32;3.75;;;19.80;99.90;;;19.15;73.90;97435.88;4952599;29;20434;-70
2022/09/06 01:07:17;;;;;;;7.25;3.30;;;19.80;99.90;;;19.15;73.94;97435.88;4953402;29;20417;-71
2022/09/06 01:10:00;;;;;;;10.02;3.40;;;19.70;99.90;;;19.14;75.02;97434.28;4953245;29;20414;-71
2022/09/06 01:12:43;;;;;;;6.88;3.80;;;19.80;99.90;;;19.13;78.16;97433.50;4945639;29;20936;-70
2022/09/06 01:15:22;;;;;;;7.30;3.53;;;19.80;99.90;;;19.13;80.65;97438.06;4953137;28;20980;-71
2022/09/06 01:18:03;;;;;;;4.90;3.65;;;19.80;99.90;;;19.08;78.71;97430.13;4953181;28;20421;-71
2022/09/06 01:20:57;;;;;;;4.68;4.05;;;19.70;99.90;;;19.08;76.99;97438.19;4952890;29;20436;-70
2022/09/06 01:24:11;;;;;;;7.18;3.60;;;19.70;99.90;;;19.06;79.91;97440.38;4952522;28;20414;-71
2022/09/06 01:27:17;;;;;;;6.57;3.80;;;19.70;99.90;;;19.05;80.68;97444.94;4922896;28;20456;-71
2022/09/06 01:29:50;;;;;;;7.82;4.07;;;19.70;99.90;;;19.02;79.21;97452.81;4921197;29;20429;-71
2022/09/06 01:32:25;;;;;;;6.60;3.53;;;19.70;99.90;;;18.99;80.90;97445.38;4952365;29;20460;-71
2022/09/06 01:35:01;;;;;;;7.45;3.60;;;19.60;99.90;;;18.94;79.62;97447.06;4952561;28;20418;-71
2022/09/06 01:37:27;;;;;;;7.10;3.83;;;19.60;99.90;;;18.94;77.95;97441.69;4952898;29;20426;-71
2022/09/06 01:39:53;;;;;;;8.30;3.67;;;19.60;99.90;;;18.89;80.61;97444.50;4952521;29;20422;-71
2022/09/06 01:42:24;;;;;;;5.68;3.65;;;19.50;99.90;;;18.88;80.28;97447.47;4952318;28;20432;-70
2022/09/06 01:44:57;;;;;;;7.47;3.83;;;19.50;99.90;;;18.82;81.21;97454.06;4951972;28;20421;-71
2022/09/06 01:47:38;;;;;;;6.70;3.80;;;19.50;99.90;;;18.79;80.49;97452.78;4952772;28;20423;-71
2022/09/06 01:50:45;;;;;;;6.50;3.70;;;19.50;99.90;;;18.74;83.64;97450.19;4952309;28;20409;-71
2022/09/06 01:53:39;;;;;;;6.80;4.20;;;19.40;99.90;;;18.70;84.60;97448.44;4941669;29;20418;-71
2022/09/06 01:56:17;;;;;;;5.88;3.90;;;19.40;99.90;;;18.69;86.03;97462.94;4952917;28;20410;-71
2022/09/06 01:59:02;;;;;;;6.50;4.10;;;19.40;99.90;;;18.68;85.76;97461.34;4952716;28;20418;-71
2022/09/06 02:04:16;;;;;;;5.25;3.95;;;19.40;99.90;;;18.65;86.90;97468.09;4948096;29;20434;-73
2022/09/06 02:06:47;;;;;;;4.72;3.53;;;19.30;99.90;;;18.65;87.05;97472.66;4951197;28;20421;-73
2022/09/06 02:09:19;;;;;;;4.93;4.20;;;19.30;99.90;;;18.64;87.52;97466.53;4952012;28;20437;-73
2022/09/06 02:11:50;;;;;;;6.00;4.30;;;19.30;99.90;;;18.65;87.34;97469.97;4952372;28;20409;-73
2022/09/06 02:14:23;;;;;;;7.28;4.00;;;19.30;99.90;;;18.63;87.48;97513.19;4950699;29;20432;-73
2022/09/06 02:16:53;;;;;;;6.00;3.72;;;19.30;99.90;;;18.68;84.17;97542.59;4947746;29;20416;-73
2022/09/06 02:19:26;;;;;;;7.22;4.28;;;19.40;99.90;;;18.71;82.42;97560.78;4934346;29;20419;-74
2022/09/06 02:21:55;;;;;;;8.35;3.92;;;19.30;99.90;;;18.78;81.55;97544.28;4943783;29;20426;-73
2022/09/06 02:24:28;;;;;;;7.90;3.67;;;19.40;99.90;;;18.94;78.06;97551.69;4933757;29;20431;-73
2022/09/06 02:26:55;;;;;;;6.88;3.85;;;19.50;99.90;;;19.11;76.46;97536.84;4944521;29;20447;-74
2022/09/06 02:29:22;;;;;;;8.55;4.18;;;19.70;99.90;;;19.22;76.41;97530.16;4963696;28;20428;-73
2022/09/06 02:31:55;;;;;;;6.20;3.83;;;19.80;99.90;;;19.40;77.98;97541.81;4934972;29;20447;-73
2022/09/06 02:34:21;;;;;;;6.13;3.97;;;20.00;99.90;;;19.46;76.82;97546.78;4951548;29;20424;-73
2022/09/06 02:36:48;;;;;;;9.80;4.13;;;20.10;99.90;;;19.55;74.84;97536.13;4951988;29;20421;-73
2022/09/06 02:39:15;;;;;;;5.68;3.70;;;20.10;99.90;;;19.60;77.76;97542.19;4934818;29;21435;-73
2022/09/06 02:41:44;;;;;;;7.43;3.70;;;20.20;99.90;;;19.67;79.50;97534.50;4933046;29;20446;-73
2022/09/06 02:44:09;;;;;;;5.07;3.67;;;20.30;99.90;;;19.70;80.90;97520.44;4932477;29;20494;-73
2022/09/06 02:46:35;;;;;;;9.10;4.15;;;20.30;99.90;;;19.74;82.11;97531.38;4932979;29;20430;-74
2022/09/06 02:49:03;;;;;;;20.25;6.57;;;20.30;99.90;;;19.78;86.45;97535.03;4940911;29;20416;-74
2022/09/06 02:51:29;;;;;;;19.97;6.93;;;20.30;99.90;;;19.59;90.63;97511.06;4932969;29;20441;-74
2022/09/06 02:53:55;;;;;;;22.60;8.30;;;20.30;99.90;;;19.49;95.24;97510.50;4932722;29;20415;-77
2022/09/06 02:56:21;;;;;;;23.38;9.18;;;20.20;99.90;;;19.22;98.41;97509.50;4938435;29;20521;-76
2022/09/06 02:58:48;;;;;;;18.13;9.40;;;19.90;99.90;;;19.08;100.00;97489.16;4945984;29;20425;-76
2022/09/06 03:01:14;;;;;;;23.53;11.93;;;19.80;99.90;;;18.91;100.00;97500.53;4951645;28;20446;-77
2022/09/06 03:03:40;;;;;;;21.25;12.35;;;19.60;99.90;;;18.73;100.00;97496.09;4951321;28;20449;-77
2022/09/06 03:06:08;;;;;;;30.10;14.30;;;19.40;99.90;;;18.58;100.00;97491.03;4951911;29;20569;-78
2022/09/06 03:08:35;;;;;;;34.45;17.83;;;19.30;99.90;;;18.50;100.00;97492.50;4940473;29;20419;-78
2022/09/06 03:11:01;;;;;;;41.10;19.30;;;19.20;99.90;;;18.48;100.00;97492.03;4931678;29;20790;-77
2022/09/06 03:13:27;;;;;;;51.25;21.85;;;19.20;99.90;;;18.39;100.00;97483.91;4932569;29;21221;-77
2022/09/06 03:15:55;;;;;;;38.72;20.45;;;19.10;99.90;;;18.32;100.00;97485.38;4936530;29;20419;-77
2022/09/06 03:18:22;;;;;;;55.40;23.38;;;19.10;99.90;;;18.33;100.00;97485.09;4970396;28;20796;-77
2022/09/06 03:20:48;;;;;;;120.47;34.77;;;19.10;99.90;;;18.34;100.00;97481.31;4955237;28;20413;-77
2022/09/06 03:23:16;;;;;;;87.88;30.48;;;19.10;99.90;;;18.41;100.00;97484.41;4954457;28;20442;-78
2022/09/06 03:25:43;;;;;;;59.72;25.55;;;19.10;99.90;;;18.22;100.00;97494.41;4955210;28;20433;-78
2022/09/06 03:28:09;;;;;;;83.90;31.90;;;19.00;99.90;;;18.28;100.00;97503.13;4954777;28;20798;-78
2022/09/06 03:30:35;;;;;;;53.78;25.23;;;19.00;99.90;;;18.14;100.00;97498.56;4955211;29;20436;-77
2022/09/06 03:33:01;;;;;;;42.33;23.60;;;18.90;99.90;;;18.10;100.00;97494.91;4954651;28;20504;-77
2022/09/06 03:35:27;;;;;;;136.82;39.08;;;18.80;99.90;;;18.10;100.00;97489.56;4954843;28;20537;-77
2022/09/06 03:37:53;;;;;;;44.88;24.70;;;18.90;99.90;;;18.07;100.00;97497.38;4955045;28;20441;-78
2022/09/06 03:40:20;;;;;;;90.65;34.03;;;18.80;99.90;;;18.07;100.00;97492.00;4954746;29;20912;-76
2022/09/06 03:42:46;;;;;;;51.75;24.90;;;18.80;99.90;;;18.11;100.00;97488.47;4953933;28;20421;-76
2022/09/06 03:45:12;;;;;;;54.53;26.23;;;18.70;99.90;;;17.78;100.00;97482.34;4954470;29;20820;-79
2022/09/06 03:47:38;;;;;;;48.97;25.37;;;18.50;99.90;;;17.79;100.00;97494.66;4954964;29;20492;-76
2022/09/06 03:50:06;;;;;;;66.95;31.48;;;18.50;99.90;;;18.00;100.00;97497.75;4954761;28;20933;-76
2022/09/06 03:52:32;;;;;;;51.75;25.88;;;18.60;99.90;;;17.73;100.00;97495.03;4954036;28;20417;-77
2022/09/06 03:54:58;;;;;;;132.43;41.17;;;18.50;99.90;;;17.69;100.00;97499.38;4954289;29;20918;-77
2022/09/06 03:57:25;;;;;;;135.20;36.90;;;18.50;99.90;;;17.64;100.00;97491.44;4953317;29;20434;-78
2022/09/06 03:59:51;;;;;;;54.77;27.93;;;18.40;99.90;;;17.59;100.00;97494.97;4954600;29;20462;-77
2022/09/06 04:02:17;;;;;;;58.70;29.30;;;18.30;99.90;;;17.58;100.00;97492.59;4953867;28;20447;-78
2022/09/06 04:04:43;;;;;;;53.55;28.17;;;18.30;99.90;;;17.64;100.00;97499.47;4935067;28;20435;-78
2022/09/06 04:07:09;;;;;;;51.92;27.67;;;18.40;99.90;;;17.65;100.00;97499.19;4942072;29;20417;-78
2022/09/06 04:09:35;;;;;;;97.45;35.25;;;18.40;99.90;;;17.72;100.00;97506.84;4954519;28;20940;-77
2022/09/06 04:12:01;;;;;;;94.70;34.10;;;18.40;99.90;;;17.57;100.00;97499.84;4943730;29;20458;-77
2022/09/06 04:14:29;;;;;;;54.28;27.33;;;18.30;99.90;;;17.45;100.00;97496.78;4935124;29;21055;-77
2022/09/06 04:16:55;;;;;;;115.40;38.05;;;18.20;99.90;;;17.52;100.00;97499.09;4941399;29;20410;-77
2022/09/06 04:19:21;;;;;;;111.90;39.72;;;18.30;99.90;;;17.54;100.00;97487.03;4947428;29;20441;-77
2022/09/06 04:21:47;;;;;;;102.55;39.03;;;18.30;99.90;;;17.63;100.00;97487.97;4952021;28;20422;-77
2022/09/06 04:24:13;;;;;;;68.03;31.40;;;18.30;99.90;;;17.51;100.00;97489.50;4952236;28;20787;-77
2022/09/06 04:26:39;;;;;;;87.53;35.97;;;18.20;99.90;;;17.59;100.00;97480.81;4939051;29;20415;-76
2022/09/06 04:29:05;;;;;;;70.43;32.30;;;18.30;99.90;;;17.65;100.00;97482.34;4940053;28;20444;-79
2022/09/06 04:31:32;;;;;;;101.88;35.53;;;18.20;99.90;;;17.36;100.00;97477.16;4953869;28;21157;-79
2022/09/06 04:33:58;;;;;;;80.28;33.03;;;18.10;99.90;;;17.33;100.00;97491.13;4953717;28;20430;-79
2022/09/06 04:36:24;;;;;;;97.65;37.20;;;18.10;99.90;;;17.39;100.00;97492.63;4954133;28;20908;-78
2022/09/06 04:38:50;;;;;;;101.40;38.07;;;18.20;99.90;;;17.42;100.00;97495.53;4962364;28;20935;-78
2022/09/06 04:41:17;;;;;;;81.55;35.05;;;18.20;99.90;;;17.42;100.00;97486.69;4967328;28;20453;-79
2022/09/06 04:43:43;;;;;;;114.45;37.28;;;18.20;99.90;;;17.41;100.00;97490.44;4953113;28;20473;-79
2022/09/06 04:46:17;;;;;;;73.28;32.47;;;18.20;99.90;;;17.42;100.00;97492.84;4953428;29;20553;-80
2022/09/06 04:48:45;;;;;;;62.77;30.63;;;18.20;99.90;;;17.44;100.00;97483.72;4953989;29;20417;-80
2022/09/06 04:51:11;;;;;;;66.15;32.22;;;18.20;99.90;;;17.45;100.00;97487.97;4953862;29;20457;-80
2022/09/06 04:53:37;;;;;;;70.25;33.08;;;18.20;99.90;;;17.46;100.00;97481.53;4953352;28;20552;-79
2022/09/06 04:56:03;;;;;;;88.68;35.78;;;18.10;99.90;;;17.38;100.00;97483.00;4954045;29;20417;-79
2022/09/06 04:58:29;;;;;;;81.70;35.77;;;18.10;99.90;;;17.37;100.00;97494.78;4954301;28;20459;-77
2022/09/06 05:00:56;;;;;;;87.55;36.03;;;18.10;99.90;;;17.32;100.00;97498.34;4952543;28;20505;-79
2022/09/06 05:03:22;;;;;;;88.67;35.30;;;18.10;99.90;;;17.31;100.00;97491.41;4952880;28;20421;-79
2022/09/06 05:05:50;;;;;;;93.63;36.05;;;18.10;99.90;;;17.32;100.00;97493.00;4953353;28;20453;-79
2022/09/06 05:08:16;;;;;;;73.13;33.38;;;18.10;99.90;;;17.42;100.00;97492.03;4953435;28;21059;-78
2022/09/06 05:10:42;;;;;;;89.10;38.45;;;18.10;99.90;;;17.49;100.00;97494.34;4953455;28;20433;-79
2022/09/06 05:13:08;;;;;;;67.20;32.55;;;18.10;99.90;;;17.34;100.00;97509.56;4952979;29;20422;-79
2022/09/06 05:15:34;;;;;;;101.18;39.08;;;18.10;99.90;;;17.38;100.00;97515.09;4951986;28;20422;-78
2022/09/06 05:18:03;;;;;;;72.03;33.42;;;18.10;99.90;;;17.42;100.00;97516.13;4952341;29;20428;-78
2022/09/06 05:20:30;;;;;;;102.90;38.05;;;18.20;99.90;;;17.45;100.00;97522.75;4953683;28;20889;-78
2022/09/06 05:22:57;;;;;;;84.43;36.85;;;18.20;99.90;;;17.64;100.00;97520.91;4953251;28;20465;-81
2022/09/06 05:25:23;;;;;;;78.35;34.40;;;18.20;99.90;;;17.36;100.00;97520.78;4953368;28;20433;-76
2022/09/06 05:27:49;;;;;;;85.88;35.42;;;18.10;99.90;;;17.32;100.00;97522.44;4952995;29;20418;-77
2022/09/06 05:30:16;;;;;;;77.05;33.72;;;18.00;99.90;;;17.36;100.00;97523.44;4952991;29;20428;-76
2022/09/06 05:32:42;;;;;;;62.83;30.58;;;18.10;99.90;;;17.37;100.00;97530.38;4964259;28;20482;-79
2022/09/06 05:35:08;;;;;;;68.72;32.15;;;18.00;99.90;;;17.47;100.00;97529.41;4943499;29;20458;-77
2022/09/06 05:37:34;;;;;;;59.65;29.92;;;18.20;99.90;;;17.47;100.00;97539.34;4951677;28;20517;-77
2022/09/06 05:40:02;;;;;;;83.50;35.85;;;18.20;99.90;;;17.54;100.00;97529.84;4952433;28;20949;-76
2022/09/06 05:42:28;;;;;;;65.30;31.77;;;18.20;99.90;;;17.38;100.00;97529.28;4952379;28;20428;-77
2022/09/06 05:44:54;;;;;;;70.95;32.00;;;18.10;99.90;;;17.39;100.00;97535.44;4950693;29;20421;-77
2022/09/06 05:47:20;;;;;;;90.37;37.00;;;18.10;99.90;;;17.49;100.00;97532.63;4952870;29;20450;-77
2022/09/06 05:49:46;;;;;;;70.50;31.53;;;18.20;99.90;;;17.42;100.00;97529.50;4948602;29;20801;-77
2022/09/06 05:52:12;;;;;;;87.57;35.20;;;18.10;99.90;;;17.45;100.00;97530.78;4949061;29;20477;-77
2022/09/06 05:54:38;;;;;;;86.25;34.90;;;18.20;99.90;;;17.47;100.00;97532.09;4948864;29;22188;-76
2022/09/06 05:57:05;;;;;;;76.18;34.28;;;18.20;99.90;;;17.49;100.00;97531.81;4950475;29;20501;-87
2022/09/06 05:59:31;;;;;;;84.53;35.80;;;18.20;99.90;;;17.52;100.00;97529.34;4946624;29;20484;-79
2022/09/06 06:01:57;;;;;;;81.57;34.90;;;18.20;99.90;;;17.54;100.00;97529.84;4943727;28;20511;-76
2022/09/06 06:04:23;;;;;;;79.33;34.60;;;18.20;99.90;;;17.57;100.00;97531.94;4949198;29;20426;-72
2022/09/06 06:06:49;;;;;;;74.60;33.90;;;18.30;99.90;;;17.62;100.00;97529.22;4951194;29;20429;-74
2022/09/06 06:09:16;;;;;;;69.47;32.65;;;18.30;99.90;;;17.70;100.00;97533.09;4944434;28;20566;-74
2022/09/06 06:11:42;;;;;;;66.78;31.65;;;18.30;99.90;;;17.66;100.00;97532.13;4943889;28;20424;-74
2022/09/06 06:14:09;;;;;;;70.70;33.90;;;18.30;99.90;;;17.66;100.00;97540.16;4945533;29;20413;-74
2022/09/06 06:16:35;;;;;;;66.67;32.07;;;18.30;99.90;;;17.63;100.00;97541.50;4950185;29;20509;-74
2022/09/06 06:19:01;;;;;;;64.50;31.23;;;18.30;99.90;;;17.60;100.00;97546.63;4942226;28;20421;-74
2022/09/06 06:21:29;;;;;;;59.55;29.75;;;18.30;99.90;;;17.55;100.00;97541.34;4948490;29;20476;-75
2022/09/06 06:23:57;;;;;;;74.80;32.55;;;18.20;99.90;;;17.63;100.00;97533.47;4946417;28;20828;-75
2022/09/06 06:26:25;;;;;;;58.03;29.13;;;18.30;99.90;;;17.65;100.00;97531.31;4946014;29;20479;-78
2022/09/06 06:28:52;;;;;;;65.03;30.17;;;18.30;99.90;;;17.70;100.00;97525.06;4950602;29;20432;-77
2022/09/06 06:31:21;;;;;;;64.75;31.58;;;18.40;99.90;;;17.73;100.00;97530.66;4947898;29;20427;-75
2022/09/06 06:33:47;;;;;;;51.13;27.35;;;18.40;99.90;;;17.85;100.00;97535.53;4942844;28;20413;-75
2022/09/06 06:36:21;;;;;;;64.85;30.00;;;18.40;99.90;;;17.83;100.00;97536.91;4945365;29;20478;-76
2022/09/06 06:38:52;;;;;;;63.58;29.63;;;18.50;99.90;;;17.85;100.00;97543.56;4943826;29;20811;-76
2022/09/06 06:41:22;;;;;;;57.20;28.42;;;18.50;99.90;;;17.87;100.00;97536.03;4945315;29;20430;-76
2022/09/06 06:43:53;;;;;;;62.47;28.75;;;18.50;99.90;;;17.94;100.00;97543.69;4944967;29;20492;-80
2022/09/06 06:46:23;;;;;;;55.03;26.02;;;18.60;99.90;;;18.01;100.00;97544.09;4946802;29;20440;-77
2022/09/06 06:48:50;;;;;;;44.22;23.02;;;18.60;99.90;;;17.94;100.00;97541.00;4952323;28;21036;-80
2022/09/06 06:51:18;;;;;;;41.57;21.07;;;18.50;99.90;;;17.96;100.00;97542.31;4955406;28;20434;-79
2022/09/06 06:53:46;;;;;;;38.08;19.40;;;18.50;99.90;;;17.97;100.00;97549.22;4952058;29;20438;-79
2022/09/06 06:56:15;;;;;;;32.33;18.38;;;18.50;99.90;;;17.89;100.00;97546.47;4952158;28;20418;-76
2022/09/06 06:58:41;;;;;;;34.22;19.90;;;18.40;99.90;;;18.22;100.00;97541.84;4946919;29;20424;-76
2022/09/06 07:01:08;;;;;;;30.70;16.40;;;18.70;99.90;;;18.18;100.00;97547.81;4950797;29;20544;-76
2022/09/06 07:03:38;;;;;;;17.13;11.50;;;18.80;99.90;;;17.75;100.00;97539.16;4950788;28;20504;-76
2022/09/06 07:06:05;;;;;;;23.77;14.52;;;18.30;99.90;;;18.05;100.00;97532.50;4951213;28;20453;-76
2022/09/06 07:08:32;;;;;;;16.65;11.05;;;18.60;99.90;;;17.85;100.00;97532.84;4955093;28;20422;-76
2022/09/06 07:10:58;;;;;;;16.40;9.68;;;18.50;99.90;;;17.83;100.00;97529.66;4945556;29;20421;-76
2022/09/06 07:13:24;;;;;;;17.92;9.98;;;18.40;99.90;;;17.93;100.00;97534.06;4950044;28;20441;-76
2022/09/06 07:15:50;;;;;;;16.40;11.15;;;18.50;99.90;;;18.34;100.00;97539.50;4952125;28;20413;-75
2022/09/06 07:18:17;;;;;;;17.67;9.57;;;18.80;99.90;;;18.09;100.00;97530.81;4946948;29;20420;-74
2022/09/06 07:20:44;;;;;;;16.60;8.57;;;18.80;99.90;;;18.11;100.00;97534.00;4953538;28;20473;-75
2022/09/06 07:23:10;;;;;;;14.93;9.48;;;18.70;99.90;;;18.36;100.00;97530.03;4950964;29;20429;-75
2022/09/06 07:25:38;;;;;;;14.63;10.02;;;18.90;99.90;;;18.54;100.00;97531.84;4949978;29;20903;-75
2022/09/06 07:28:08;;;;;;;15.13;9.55;;;19.00;99.90;;;18.45;100.00;97527.47;4926217;29;20464;-73
2022/09/06 07:30:36;;;;;;;10.98;6.40;;;19.10;99.90;;;18.33;100.00;97527.97;4943239;28;20495;-77
2022/09/06 07:33:04;;;;;;;11.25;6.47;;;18.90;99.90;;;18.25;100.00;97538.59;4939291;29;20981;-74
2022/09/06 07:35:30;;;;;;;9.73;5.85;;;18.80;99.90;;;18.17;100.00;97540.06;4945337;28;20851;-75
2022/09/06 07:38:00;;;;;;;11.73;7.40;;;18.80;99.90;;;18.43;100.00;97527.75;4949515;29;20440;-75
2022/09/06 07:40:28;;;;;;;13.53;5.73;;;19.00;99.90;;;18.21;100.00;97527.66;4936546;29;20493;-75
2022/09/06 07:42:56;;;;;;;11.70;7.03;;;18.90;99.90;;;18.45;100.00;97524.78;4936663;28;20426;-79
2022/09/06 07:45:22;;;;;;;12.80;5.68;;;18.90;99.90;;;18.37;100.00;97528.16;4947918;28;20961;-74
2022/09/06 07:47:53;;;;;;;13.73;5.80;;;19.00;99.90;;;18.42;100.00;97526.16;4949871;28;20893;-76
2022/09/06 07:50:20;;;;;;;13.20;6.18;;;19.10;99.90;;;18.58;100.00;97524.00;4955181;29;20414;-79
2022/09/06 07:52:46;;;;;;;8.43;6.15;;;19.20;99.90;;;18.76;100.00;97531.16;4953715;28;20410;-76
2022/09/06 07:55:13;;;;;;;9.27;6.45;;;19.30;99.90;;;18.85;100.00;97526.69;4951444;28;20418;-76
2022/09/06 07:57:39;;;;;;;7.88;6.40;;;19.40;99.90;;;18.99;100.00;97518.59;4949667;29;20469;-79
2022/09/06 08:00:07;;;;;;;7.65;5.72;;;19.50;99.90;;;19.03;100.00;97516.88;4952980;28;20429;-80
2022/09/06 08:02:32;;;;;;;9.15;6.03;;;19.70;99.90;;;19.15;100.00;97509.13;4964651;23;20457;-75
2022/09/06 08:04:58;;;;;;;8.75;5.75;;;19.70;99.90;;;19.22;100.00;97511.38;4952946;29;20477;-76
2022/09/06 08:07:24;;;;;;;7.93;5.75;;;19.80;99.90;;;19.33;100.00;97513.50;4952621;29;20441;-76
2022/09/06 08:09:50;;;;;;;9.73;5.32;;;19.80;99.90;;;19.38;100.00;97509.94;4954336;29;20429;-77
2022/09/06 08:12:18;;;;;;;9.30;4.72;;;19.90;99.90;;;19.43;100.00;97509.81;4956124;28;20424;-79
2022/09/06 08:14:44;;;;;;;10.68;4.90;;;20.00;99.90;;;19.53;100.00;97506.13;4972493;28;20412;-73
2022/09/06 08:17:10;;;;;;;9.68;4.68;;;20.10;99.90;;;19.52;100.00;97507.22;4969832;28;20915;-76
2022/09/06 08:19:36;;;;;;;10.83;5.20;;;20.20;99.90;;;19.77;100.00;97511.19;4970368;28;20420;-77
2022/09/06 08:22:02;;;;;;;10.15;5.25;;;20.30;99.90;;;19.71;100.00;97510.50;4972399;28;20420;-76
2022/09/06 08:24:28;;;;;;;8.82;4.57;;;20.30;99.90;;;19.74;95.16;97517.94;4969677;28;20793;-75
2022/09/06 08:26:54;;;;;;;5.80;4.03;;;20.40;99.90;;;19.87;97.72;97513.59;4963430;28;20424;-76
2022/09/06 08:29:21;;;;;;;9.63;4.65;;;20.50;99.90;;;20.12;97.23;97517.53;4953993;28;20476;-75
2022/09/06 08:31:47;;;;;;;10.93;4.53;;;20.70;99.90;;;20.15;94.74;97514.22;4970164;28;20416;-76
2022/09/06 08:34:14;;;;;;;14.60;4.50;;;20.80;99.90;;;20.19;93.11;97507.91;4972495;28;20510;-74
2022/09/06 08:36:41;;;;;;;12.90;4.50;;;20.80;99.90;;;20.39;87.47;97514.66;4973093;28;20444;-74
2022/09/06 08:39:09;;;;;;;9.30;4.30;;;21.00;99.90;;;20.50;84.48;97507.91;4973290;28;20420;-77
2022/09/06 08:41:46;;;;;;;8.68;4.20;;;21.20;99.90;;;20.71;88.53;97508.09;4973642;28;20486;-74
2022/09/06 08:44:16;;;;;;;7.63;4.05;;;21.30;99.90;;;20.76;81.51;97505.25;4972855;28;20417;-74
2022/09/06 08:46:54;;;;;;;10.13;3.72;;;21.40;99.90;;;20.94;78.41;97508.78;4973474;28;20491;-74
2022/09/06 08:49:20;;;;;;;9.60;4.18;;;21.60;99.90;;;21.08;77.71;97510.22;4973512;28;20412;-75
2022/09/06 08:52:12;;;;;;;9.68;3.80;;;21.70;99.90;;;21.38;80.58;97510.41;4973404;28;20408;-76
2022/09/06 08:54:47;;;;;;;12.77;3.87;;;21.80;99.90;;;21.42;79.24;97503.31;4972827;28;20471;-74
2022/09/06 08:57:26;;;;;;;13.38;3.90;;;22.00;99.90;;;21.50;76.49;97503.28;4973374;28;20460;-75
2022/09/06 08:59:59;;;;;;;11.37;4.50;;;22.10;99.90;;;21.56;72.09;97495.84;4973358;28;20415;-73
2022/09/06 09:02:40;;;;;;;7.32;3.63;;;22.20;99.90;;;21.70;73.59;97495.66;4972907;28;20874;-75
2022/09/06 09:05:19;;;;;;;7.90;3.33;;;22.30;99.90;;;21.94;74.23;97488.63;4972997;28;20518;-74
2022/09/06 09:07:55;;;;;;;7.78;3.75;;;22.40;99.90;;;22.11;74.65;97495.88;4973152;28;20408;-75
2022/09/06 09:10:27;;;;;;;11.05;3.90;;;22.60;99.90;;;22.24;77.44;97496.78;4973153;28;20436;-74
2022/09/06 09:12:54;;;;;;;8.05;3.53;;;22.70;99.90;;;22.32;74.94;97494.06;4972327;28;20411;-75
2022/09/06 09:15:20;;;;;;;12.32;4.22;;;22.80;99.90;;;22.57;76.08;97492.34;4973010;28;20419;-78
2022/09/06 09:17:50;;;;;;;10.60;3.65;;;22.90;99.90;;;22.69;74.97;97483.56;4972982;28;20459;-75
2022/09/06 09:20:17;;;;;;;12.60;4.35;;;23.10;99.90;;;22.69;70.99;97488.94;4972947;28;20404;-73
2022/09/06 09:22:44;;;;;;;12.02;3.90;;;23.20;99.90;;;22.81;70.48;97483.66;4972617;28;20413;-72
2022/09/06 09:25:20;;;;;;;12.15;3.70;;;23.30;99.90;;;22.92;72.31;97492.16;4971229;28;20905;-73
2022/09/06 09:27:55;;;;;;;8.70;3.57;;;23.30;99.90;;;23.11;73.04;97493.28;4964814;28;20495;-76
2022/09/06 09:30:22;;;;;;;9.93;3.60;;;23.50;99.90;;;23.01;73.33;97487.47;4972800;28;20886;-73
2022/09/06 09:32:50;;;;;;;13.02;4.18;;;23.50;99.90;;;22.83;69.29;97483.34;4954803;28;20847;-76
2022/09/06 09:35:27;;;;;;;9.13;3.60;;;23.40;99.60;;;22.87;73.15;97486.94;4972655;28;20400;-74
2022/09/06 09:38:03;;;;;;;11.30;3.97;;;23.30;99.90;;;22.96;76.15;97484.97;4972664;28;20811;-74
2022/09/06 09:40:34;;;;;;;15.23;3.73;;;23.40;99.90;;;22.93;69.81;97488.34;4971292;28;20906;-74
2022/09/06 09:43:16;;;;;;;9.83;3.00;;;23.50;99.90;;;23.23;70.06;97487.16;4968408;28;20423;-76
2022/09/06 09:45:43;;;;;;;13.73;3.70;;;23.70;99.90;;;23.36;65.42;97485.31;4967388;28;20930;-76
2022/09/06 09:48:23;;;;;;;11.18;3.72;;;23.90;95.10;;;23.73;69.87;97484.34;4963746;28;20422;-75
2022/09/06 09:50:49;;;;;;;14.35;3.63;;;24.10;99.90;;;23.68;65.73;97491.88;4964514;28;20917;-74
2022/09/06 09:53:19;;;;;;;16.27;3.70;;;24.20;95.30;;;23.65;62.44;97487.13;4968321;28;20431;-77
2022/09/06 09:55:45;;;;;;;14.52;3.75;;;24.20;90.70;;;23.70;64.31;97481.50;4969810;28;20451;-75
2022/09/06 09:58:27;;;;;;;9.93;3.25;;;24.20;92.80;;;23.98;67.50;97490.59;4971174;28;20416;-77
2022/09/06 10:01:10;;;;;;;9.10;2.83;;;24.30;96.10;;;24.02;64.89;97479.91;4954767;28;20552;-75
2022/09/06 10:03:38;;;;;;;18.20;3.85;;;24.50;93.40;;;24.10;62.21;97482.50;4971088;28;20427;-76
2022/09/06 10:06:08;;;;;;;8.50;3.08;;;24.60;90.40;;;24.71;66.00;97487.97;4972130;28;20420;-77
2022/09/06 10:08:41;;;;;;;10.45;3.25;;;25.00;95.40;;;24.86;64.97;97475.63;4954809;28;20420;-76
2022/09/06 10:11:11;;;;;;;8.35;3.10;;;25.30;93.10;;;25.24;66.17;97478.72;4972148;28;20492;-76
2022/09/06 10:13:37;;;;;;;8.90;3.28;;;25.70;94.40;;;25.64;63.86;97470.56;4970986;28;20420;-78
2022/09/06 10:16:04;;;;;;;9.80;2.80;;;26.10;93.30;;;25.74;61.66;97472.78;4971644;28;20467;-76
2022/09/06 10:18:35;;;;;;;9.57;3.30;;;26.20;89.00;;;25.83;59.83;97470.69;4971750;28;20412;-76